createdAt,value
2023-01-27T00:00:24.127Z,27.80
2023-01-27T00:01:24.288Z,26.40
2023-01-27T00:02:24.490Z,27.80
2023-01-27T00:03:24.675Z,25.50
2023-01-27T00:04:24.819Z,25.30
2023-01-27T00:05:24.973Z,25.90
2023-01-27T00:06:25.127Z,25.30
2023-01-27T00:07:25.310Z,24.40
2023-01-27T00:08:25.461Z,24.50
2023-01-27T00:09:25.614Z,26.40
2023-01-27T00:10:25.772Z,28.10
2023-01-27T00:11:25.921Z,29.30
2023-01-27T00:12:26.082Z,26.90
2023-01-27T00:13:26.231Z,29.40
2023-01-27T00:14:26.389Z,28.50
2023-01-27T00:15:26.565Z,28.20
2023-01-27T00:16:26.975Z,27.30
2023-01-27T00:17:26.932Z,25.70
2023-01-27T00:18:27.172Z,24.70
2023-01-27T00:19:27.339Z,28.90
2023-01-27T00:20:27.487Z,24.80
2023-01-27T00:21:27.683Z,27.10
2023-01-27T00:22:27.832Z,24.80
2023-01-27T00:23:28.008Z,22.90
2023-01-27T00:24:28.165Z,23.30
2023-01-27T00:25:28.316Z,23.10
2023-01-27T00:26:28.494Z,21.10
2023-01-27T00:27:28.675Z,21.20
2023-01-27T00:28:28.854Z,21.70
2023-01-27T00:29:29.078Z,20.80
2023-01-27T00:30:29.245Z,22.10
2023-01-27T00:31:29.451Z,21.70
2023-01-27T00:32:29.646Z,24.40
2023-01-27T00:33:29.815Z,20.40
2023-01-27T00:34:29.963Z,21.00
2023-01-27T00:35:30.137Z,20.90
2023-01-27T00:36:30.284Z,20.50
2023-01-27T00:37:30.505Z,20.70
2023-01-27T00:38:30.649Z,20.80
2023-01-27T00:39:30.804Z,20.20
2023-01-27T00:40:30.946Z,20.80
2023-01-27T00:41:31.112Z,21.90
2023-01-27T00:42:31.291Z,21.90
2023-01-27T00:43:31.441Z,22.50
2023-01-27T00:44:31.639Z,20.10
2023-01-27T00:45:31.827Z,22.20
2023-01-27T00:46:32.097Z,21.80
2023-01-27T00:47:32.207Z,21.60
2023-01-27T00:48:32.379Z,22.60
2023-01-27T00:49:32.549Z,23.90
2023-01-27T00:50:32.703Z,22.60
2023-01-27T00:51:32.858Z,22.00
2023-01-27T00:52:33.030Z,24.40
2023-01-27T00:53:33.255Z,24.40
2023-01-27T00:54:33.417Z,22.40
2023-01-27T00:55:33.594Z,23.00
2023-01-27T00:56:33.766Z,22.60
2023-01-27T00:57:33.927Z,24.30
2023-01-27T00:58:34.085Z,24.00
2023-01-27T00:59:34.242Z,25.50
2023-01-27T01:00:34.405Z,22.80
2023-01-27T01:01:34.614Z,23.20
2023-01-27T01:02:34.817Z,23.20
2023-01-27T01:03:34.979Z,24.50
2023-01-27T01:04:35.145Z,23.90
2023-01-27T01:05:35.294Z,24.00
2023-01-27T01:06:35.455Z,25.60
2023-01-27T01:07:35.617Z,25.10
2023-01-27T01:08:35.774Z,24.80
2023-01-27T01:09:35.950Z,25.80
2023-01-27T01:10:36.102Z,24.20
2023-01-27T01:11:36.254Z,25.40
2023-01-27T01:12:36.443Z,26.20
2023-01-27T01:13:36.579Z,27.40
2023-01-27T01:14:36.739Z,25.90
2023-01-27T01:15:36.883Z,26.80
2023-01-27T01:16:37.037Z,27.70
2023-01-27T01:17:37.190Z,25.60
2023-01-27T01:18:37.341Z,29.20
2023-01-27T01:19:37.482Z,28.10
2023-01-27T01:20:37.645Z,28.30
2023-01-27T01:21:40.073Z,28.90
2023-01-27T01:22:37.999Z,24.90
2023-01-27T01:23:38.139Z,25.10
2023-01-27T01:24:38.321Z,26.30
2023-01-27T01:25:38.467Z,27.80
2023-01-27T01:26:38.648Z,26.60
2023-01-27T01:27:38.821Z,28.30
2023-01-27T01:28:38.974Z,29.50
2023-01-27T01:29:39.126Z,29.50
2023-01-27T01:30:39.300Z,29.80
2023-01-27T01:31:39.520Z,29.40
2023-01-27T01:32:39.700Z,30.90
2023-01-27T01:33:39.863Z,28.20
2023-01-27T01:34:40.033Z,29.10
2023-01-27T01:35:40.175Z,28.80
2023-01-27T01:36:40.341Z,30.60
2023-01-27T01:37:40.505Z,29.30
2023-01-27T01:38:40.660Z,27.40
2023-01-27T01:39:40.812Z,28.60
2023-01-27T01:40:41.003Z,26.50
2023-01-27T01:41:41.164Z,28.30
2023-01-27T01:42:41.340Z,29.50
2023-01-27T01:43:41.502Z,29.00
2023-01-27T01:44:41.659Z,29.10
2023-01-27T01:45:41.827Z,27.70
2023-01-27T01:46:42.088Z,26.70
2023-01-27T01:47:42.292Z,27.40
2023-01-27T01:48:42.467Z,27.50
2023-01-27T01:49:42.610Z,28.40
2023-01-27T01:50:42.790Z,28.50
2023-01-27T01:51:42.961Z,27.60
2023-01-27T01:52:43.167Z,29.20
2023-01-27T01:53:43.364Z,29.50
2023-01-27T01:54:43.566Z,28.20
2023-01-27T01:55:43.748Z,27.40
2023-01-27T01:56:43.911Z,29.30
2023-01-27T01:57:44.124Z,31.10
2023-01-27T01:58:44.223Z,28.30
2023-01-27T01:59:44.358Z,28.50
2023-01-27T02:00:44.531Z,29.30
2023-01-27T02:01:44.763Z,29.50
2023-01-27T02:02:44.967Z,29.60
2023-01-27T02:03:52.136Z,30.80
2023-01-27T02:04:45.260Z,32.30
2023-01-27T02:05:45.433Z,32.40
2023-01-27T02:06:48.310Z,32.00
2023-01-27T02:07:45.791Z,32.40
2023-01-27T02:08:45.957Z,30.60
2023-01-27T02:09:46.112Z,31.40
2023-01-27T02:10:46.281Z,33.40
2023-01-27T02:11:46.419Z,33.70
2023-01-27T02:12:46.628Z,32.20
2023-01-27T02:13:46.779Z,31.60
2023-01-27T02:14:46.933Z,33.30
2023-01-27T02:15:47.103Z,30.70
2023-01-27T02:16:47.284Z,31.50
2023-01-27T02:17:47.444Z,31.90
2023-01-27T02:18:47.593Z,28.30
2023-01-27T02:19:47.753Z,33.00
2023-01-27T02:20:48.177Z,29.60
2023-01-27T02:21:49.660Z,30.60
2023-01-27T02:22:48.293Z,31.70
2023-01-27T02:23:48.487Z,32.00
2023-01-27T02:24:48.653Z,29.10
2023-01-27T02:25:48.793Z,32.10
2023-01-27T02:26:48.951Z,37.20
2023-01-27T02:27:49.134Z,39.10
2023-01-27T02:28:49.456Z,36.80
2023-01-27T02:29:49.785Z,38.20
2023-01-27T02:30:49.839Z,40.60
2023-01-27T02:31:50.055Z,37.80
2023-01-27T02:32:50.027Z,40.10
2023-01-27T02:33:50.173Z,39.70
2023-01-27T02:34:50.316Z,44.30
2023-01-27T02:35:50.546Z,43.90
2023-01-27T02:36:50.717Z,51.60
2023-01-27T02:37:50.892Z,48.10
2023-01-27T02:38:51.042Z,47.40
2023-01-27T02:39:51.190Z,46.00
2023-01-27T02:40:51.348Z,47.10
2023-01-27T02:41:51.487Z,45.70
2023-01-27T02:42:51.659Z,46.00
2023-01-27T02:43:51.801Z,37.60
2023-01-27T02:44:51.953Z,37.00
2023-01-27T02:45:52.164Z,34.60
2023-01-27T02:46:52.333Z,33.30
2023-01-27T02:47:52.553Z,31.90
2023-01-27T02:48:52.712Z,32.70
2023-01-27T02:49:52.882Z,29.50
2023-01-27T02:50:53.034Z,31.50
2023-01-27T02:51:53.164Z,32.90
2023-01-27T02:52:53.329Z,30.60
2023-01-27T02:53:53.479Z,29.80
2023-01-27T02:54:53.625Z,28.90
2023-01-27T02:55:53.760Z,31.60
2023-01-27T02:56:53.899Z,28.60
2023-01-27T02:57:54.045Z,27.50
2023-01-27T02:58:54.189Z,32.40
2023-01-27T02:59:54.410Z,26.00
2023-01-27T03:00:54.545Z,29.50
2023-01-27T03:01:54.669Z,25.90
2023-01-27T03:02:54.834Z,26.50
2023-01-27T03:03:54.960Z,25.60
2023-01-27T03:04:55.117Z,29.30
2023-01-27T03:05:55.252Z,25.10
2023-01-27T03:06:55.397Z,25.30
2023-01-27T03:07:55.553Z,25.10
2023-01-27T03:08:55.675Z,25.00
2023-01-27T03:09:55.804Z,24.00
2023-01-27T03:10:56.078Z,25.80
2023-01-27T03:11:56.215Z,25.50
2023-01-27T03:12:56.390Z,24.50
2023-01-27T03:13:56.505Z,26.70
2023-01-27T03:14:56.633Z,23.60
2023-01-27T03:15:56.783Z,24.40
2023-01-27T03:16:56.913Z,24.10
2023-01-27T03:17:57.042Z,25.40
2023-01-27T03:18:57.178Z,25.50
2023-01-27T03:19:57.348Z,25.00
2023-01-27T03:20:57.476Z,27.30
2023-01-27T03:21:57.622Z,23.90
2023-01-27T03:22:57.777Z,22.40
2023-01-27T03:23:57.957Z,22.10
2023-01-27T03:24:58.069Z,22.70
2023-01-27T03:25:58.191Z,23.70
2023-01-27T03:26:58.326Z,21.30
2023-01-27T03:27:58.474Z,24.50
2023-01-27T03:28:58.711Z,22.30
2023-01-27T03:29:58.804Z,23.10
2023-01-27T03:30:59.036Z,21.90
2023-01-27T03:31:59.182Z,22.60
2023-01-27T03:32:59.468Z,22.70
2023-01-27T03:33:59.496Z,22.50
2023-01-27T03:34:59.646Z,24.10
2023-01-27T03:35:59.788Z,23.30
2023-01-27T03:36:59.926Z,26.50
2023-01-27T03:38:00.117Z,20.90
2023-01-27T03:39:00.249Z,22.60
2023-01-27T03:40:00.404Z,23.00
2023-01-27T03:41:00.543Z,21.60
2023-01-27T03:42:00.680Z,23.60
2023-01-27T03:43:00.888Z,23.60
2023-01-27T03:44:01.027Z,22.90
2023-01-27T03:45:01.200Z,23.00
2023-01-27T03:46:01.418Z,22.50
2023-01-27T03:47:01.554Z,24.50
2023-01-27T03:48:01.711Z,21.00
2023-01-27T03:49:01.852Z,20.80
2023-01-27T03:50:01.983Z,20.30
2023-01-27T03:51:02.113Z,20.80
2023-01-27T03:52:02.246Z,21.50
2023-01-27T03:53:02.394Z,20.50
2023-01-27T03:54:02.519Z,22.00
2023-01-27T03:55:02.833Z,21.70
2023-01-27T03:56:02.977Z,21.90
2023-01-27T03:57:03.147Z,20.80
2023-01-27T03:58:03.380Z,20.60
2023-01-27T03:59:03.396Z,21.80
2023-01-27T04:00:03.529Z,20.10
2023-01-27T04:01:03.684Z,23.30
2023-01-27T04:02:03.792Z,21.60
2023-01-27T04:03:03.964Z,21.80
2023-01-27T04:04:04.087Z,21.90
2023-01-27T04:05:04.255Z,23.30
2023-01-27T04:06:04.422Z,21.90
2023-01-27T04:07:04.557Z,23.00
2023-01-27T04:08:04.704Z,21.70
2023-01-27T04:09:04.845Z,20.20
2023-01-27T04:10:04.988Z,20.40
2023-01-27T04:11:05.115Z,22.60
2023-01-27T04:12:05.243Z,22.30
2023-01-27T04:13:05.396Z,20.40
2023-01-27T04:14:05.521Z,19.90
2023-01-27T04:15:05.641Z,21.00
2023-01-27T04:16:05.802Z,21.20
2023-01-27T04:17:05.919Z,21.30
2023-01-27T04:18:06.095Z,21.30
2023-01-27T04:19:06.238Z,20.90
2023-01-27T04:20:06.339Z,20.30
2023-01-27T04:21:06.600Z,20.90
2023-01-27T04:22:06.723Z,19.70
2023-01-27T04:23:06.868Z,18.90
2023-01-27T04:24:07.044Z,21.10
2023-01-27T04:25:07.165Z,21.60
2023-01-27T04:26:07.308Z,20.80
2023-01-27T04:27:07.460Z,22.10
2023-01-27T04:28:07.599Z,21.00
2023-01-27T04:29:07.720Z,22.30
2023-01-27T04:30:07.841Z,20.90
2023-01-27T04:31:08.078Z,22.90
2023-01-27T04:32:08.193Z,22.40
2023-01-27T04:33:08.405Z,23.60
2023-01-27T04:34:08.598Z,21.80
2023-01-27T04:35:08.798Z,21.00
2023-01-27T04:36:08.980Z,24.00
2023-01-27T04:37:09.135Z,23.10
2023-01-27T04:38:09.262Z,24.80
2023-01-27T04:39:09.391Z,22.60
2023-01-27T04:40:09.533Z,25.30
2023-01-27T04:41:09.685Z,24.90
2023-01-27T04:42:09.794Z,24.40
2023-01-27T04:43:10.038Z,28.00
2023-01-27T04:44:10.155Z,26.90
2023-01-27T04:45:10.540Z,27.10
2023-01-27T04:46:10.558Z,28.20
2023-01-27T04:47:10.695Z,28.60
2023-01-27T04:48:10.834Z,29.30
2023-01-27T04:49:10.999Z,27.40
2023-01-27T04:50:11.128Z,30.60
2023-01-27T04:51:11.249Z,29.70
2023-01-27T04:52:11.482Z,28.80
2023-01-27T04:53:11.747Z,27.40
2023-01-27T04:54:11.864Z,27.30
2023-01-27T04:55:12.374Z,26.90
2023-01-27T04:56:12.181Z,27.30
2023-01-27T04:57:12.306Z,29.00
2023-01-27T04:58:12.445Z,28.50
2023-01-27T04:59:12.618Z,26.00
2023-01-27T05:00:12.740Z,26.20
2023-01-27T05:01:12.929Z,25.60
2023-01-27T05:02:13.157Z,25.40
2023-01-27T05:03:13.322Z,27.30
2023-01-27T05:04:13.449Z,28.60
2023-01-27T05:05:14.032Z,29.60
2023-01-27T05:06:13.767Z,25.20
2023-01-27T05:07:14.017Z,25.90
2023-01-27T05:08:14.180Z,28.30
2023-01-27T05:09:14.302Z,27.30
2023-01-27T05:10:14.437Z,25.10
2023-01-27T05:11:14.590Z,25.20
2023-01-27T05:12:14.711Z,24.20
2023-01-27T05:13:14.864Z,25.40
2023-01-27T05:14:15.053Z,26.40
2023-01-27T05:15:15.454Z,26.60
2023-01-27T05:16:15.352Z,24.00
2023-01-27T05:17:15.465Z,25.80
2023-01-27T05:18:15.616Z,24.50
2023-01-27T05:19:15.734Z,22.80
2023-01-27T05:20:15.865Z,26.30
2023-01-27T05:21:16.041Z,27.50
2023-01-27T05:22:16.131Z,28.20
2023-01-27T05:23:16.261Z,26.20
2023-01-27T05:24:16.466Z,25.50
2023-01-27T05:25:16.582Z,26.80
2023-01-27T05:26:16.732Z,25.30
2023-01-27T05:27:16.859Z,27.50
2023-01-27T05:28:17.011Z,28.60
2023-01-27T05:29:17.180Z,31.30
2023-01-27T05:30:17.332Z,25.50
2023-01-27T05:31:17.548Z,29.10
2023-01-27T05:32:17.643Z,29.60
2023-01-27T05:33:17.798Z,28.30
2023-01-27T05:34:17.936Z,27.00
2023-01-27T05:35:18.071Z,27.60
2023-01-27T05:36:18.232Z,28.60
2023-01-27T05:37:18.364Z,29.30
2023-01-27T05:38:18.526Z,27.60
2023-01-27T05:39:18.751Z,30.80
2023-01-27T05:40:18.897Z,29.80
2023-01-27T05:41:19.030Z,27.20
2023-01-27T05:42:19.167Z,26.30
2023-01-27T05:43:19.339Z,28.70
2023-01-27T05:44:19.505Z,26.90
2023-01-27T05:45:19.868Z,28.10
2023-01-27T05:46:19.905Z,31.70
2023-01-27T05:47:20.153Z,29.90
2023-01-27T05:48:20.310Z,28.30
2023-01-27T05:49:20.481Z,29.10
2023-01-27T05:50:20.673Z,28.20
2023-01-27T05:51:20.978Z,32.20
2023-01-27T05:52:21.025Z,31.40
2023-01-27T05:53:21.217Z,30.90
2023-01-27T05:54:21.543Z,31.40
2023-01-27T05:55:21.617Z,34.50
2023-01-27T05:56:21.777Z,34.60
2023-01-27T05:57:23.517Z,35.10
2023-01-27T05:58:22.136Z,31.50
2023-01-27T05:59:23.230Z,33.10
2023-01-27T06:00:22.487Z,28.90
2023-01-27T06:01:22.639Z,32.80
2023-01-27T06:02:23.703Z,30.30
2023-01-27T06:03:22.971Z,33.30
2023-01-27T06:04:23.684Z,32.40
2023-01-27T06:05:23.279Z,30.80
2023-01-27T06:06:23.454Z,36.40
2023-01-27T06:07:23.567Z,36.70
2023-01-27T06:08:23.729Z,33.90
2023-01-27T06:09:23.871Z,36.70
2023-01-27T06:10:24.039Z,36.80
2023-01-27T06:11:24.345Z,37.40
2023-01-27T06:12:24.356Z,42.30
2023-01-27T06:13:24.575Z,39.30
2023-01-27T06:14:24.772Z,40.60
2023-01-27T06:15:24.920Z,39.30
2023-01-27T06:16:25.129Z,41.70
2023-01-27T06:17:25.268Z,41.10
2023-01-27T06:18:25.467Z,42.10
2023-01-27T06:19:25.611Z,42.70
2023-01-27T06:20:25.791Z,43.80
2023-01-27T06:21:25.998Z,43.60
2023-01-27T06:22:26.213Z,43.30
2023-01-27T06:23:26.457Z,41.10
2023-01-27T06:24:26.592Z,44.40
2023-01-27T06:25:26.689Z,44.10
2023-01-27T06:26:26.946Z,44.60
2023-01-27T06:27:27.047Z,42.80
2023-01-27T06:28:29.907Z,42.20
2023-01-27T06:29:27.379Z,43.20
2023-01-27T06:30:27.608Z,41.90
2023-01-27T06:31:27.981Z,43.90
2023-01-27T06:32:28.047Z,51.00
2023-01-27T06:33:28.289Z,43.60
2023-01-27T06:34:28.505Z,45.00
2023-01-27T06:35:28.711Z,42.40
2023-01-27T06:36:28.934Z,37.80
2023-01-27T06:37:29.142Z,35.40
2023-01-27T06:38:29.611Z,34.60
2023-01-27T06:39:29.457Z,31.20
2023-01-27T06:40:29.674Z,33.50
2023-01-27T06:41:29.856Z,31.90
2023-01-27T06:42:30.043Z,41.10
2023-01-27T06:43:30.248Z,41.30
2023-01-27T06:44:30.437Z,41.90
2023-01-27T06:45:30.638Z,40.30
2023-01-27T06:46:30.924Z,40.70
2023-01-27T06:47:31.033Z,40.00
2023-01-27T06:48:31.289Z,41.60
2023-01-27T06:49:31.354Z,50.00
2023-01-27T06:50:31.628Z,42.00
2023-01-27T06:51:31.751Z,43.90
2023-01-27T06:52:31.937Z,44.70
2023-01-27T06:53:32.143Z,37.30
2023-01-27T06:54:32.352Z,38.20
2023-01-27T06:55:32.552Z,35.30
2023-01-27T06:56:32.772Z,35.40
2023-01-27T06:57:32.929Z,35.40
2023-01-27T06:58:33.145Z,32.20
2023-01-27T06:59:33.377Z,34.40
2023-01-27T07:00:33.551Z,35.30
2023-01-27T07:01:33.872Z,30.90
2023-01-27T07:02:33.951Z,36.00
2023-01-27T07:03:39.340Z,41.00
2023-01-27T07:04:34.363Z,34.50
2023-01-27T07:05:34.436Z,33.00
2023-01-27T07:06:34.611Z,32.70
2023-01-27T07:07:34.827Z,34.50
2023-01-27T07:08:35.024Z,36.90
2023-01-27T07:09:50.570Z,40.30
2023-01-27T07:10:36.366Z,39.70
2023-01-27T07:11:35.551Z,45.80
2023-01-27T07:12:35.777Z,49.30
2023-01-27T07:13:35.979Z,50.00
2023-01-27T07:14:36.178Z,43.50
2023-01-27T07:15:36.366Z,40.30
2023-01-27T07:16:36.618Z,47.00
2023-01-27T07:17:36.791Z,35.70
2023-01-27T07:18:37.035Z,41.40
2023-01-27T07:19:37.215Z,37.70
2023-01-27T07:20:37.408Z,36.30
2023-01-27T07:21:37.597Z,35.10
2023-01-27T07:22:37.771Z,39.80
2023-01-27T07:23:38.000Z,38.60
2023-01-27T07:24:38.171Z,42.00
2023-01-27T07:25:38.374Z,43.30
2023-01-27T07:26:38.595Z,44.60
2023-01-27T07:27:38.786Z,40.40
2023-01-27T07:28:38.984Z,42.00
2023-01-27T07:29:39.176Z,42.30
2023-01-27T07:30:39.487Z,41.60
2023-01-27T07:31:39.580Z,44.70
2023-01-27T07:32:39.735Z,44.50
2023-01-27T07:33:39.940Z,41.70
2023-01-27T07:34:40.118Z,38.90
2023-01-27T07:35:40.299Z,38.90
2023-01-27T07:36:40.474Z,39.70
2023-01-27T07:37:40.660Z,39.50
2023-01-27T07:38:40.870Z,42.20
2023-01-27T07:39:41.055Z,42.70
2023-01-27T07:40:41.230Z,41.10
2023-01-27T07:41:41.425Z,43.90
2023-01-27T07:42:41.600Z,47.90
2023-01-27T07:43:41.813Z,45.70
2023-01-27T07:44:41.976Z,45.10
2023-01-27T07:45:42.248Z,49.10
2023-01-27T07:46:42.292Z,48.60
2023-01-27T07:47:42.481Z,57.00
2023-01-27T07:48:42.689Z,59.50
2023-01-27T07:49:42.863Z,54.10
2023-01-27T07:50:43.045Z,54.80
2023-01-27T07:51:43.214Z,61.60
2023-01-27T07:52:43.396Z,57.30
2023-01-27T07:53:43.584Z,61.60
2023-01-27T07:54:43.754Z,62.50
2023-01-27T07:55:43.927Z,54.40
2023-01-27T07:56:44.103Z,54.80
2023-01-27T07:57:44.272Z,50.00
2023-01-27T07:58:44.453Z,52.70
2023-01-27T07:59:44.639Z,54.10
2023-01-27T08:00:44.864Z,49.70
2023-01-27T08:01:47.184Z,49.80
2023-01-27T08:02:45.183Z,47.50
2023-01-27T08:03:45.371Z,49.00
2023-01-27T08:04:53.831Z,52.40
2023-01-27T08:05:45.720Z,50.00
2023-01-27T08:06:48.582Z,43.60
2023-01-27T08:07:46.834Z,46.70
2023-01-27T08:08:46.248Z,49.40
2023-01-27T08:09:46.440Z,49.60
2023-01-27T08:10:46.615Z,46.50
2023-01-27T08:11:46.807Z,49.40
2023-01-27T08:12:46.976Z,54.50
2023-01-27T08:13:47.177Z,47.60
2023-01-27T08:14:47.346Z,49.40
2023-01-27T08:15:47.517Z,48.50
2023-01-27T08:16:47.747Z,47.40
2023-01-27T08:17:47.846Z,48.90
2023-01-27T08:18:48.027Z,47.50
2023-01-27T08:19:48.204Z,45.30
2023-01-27T08:20:48.388Z,47.50
2023-01-27T08:21:48.545Z,44.00
2023-01-27T08:22:48.715Z,47.30
2023-01-27T08:23:48.936Z,44.20
2023-01-27T08:24:49.064Z,44.90
2023-01-27T08:25:49.236Z,42.70
2023-01-27T08:26:49.389Z,47.60
2023-01-27T08:27:49.564Z,44.30
2023-01-27T08:28:49.768Z,40.70
2023-01-27T08:29:49.959Z,46.40
2023-01-27T08:30:50.169Z,42.50
2023-01-27T08:31:50.371Z,46.40
2023-01-27T08:32:50.514Z,45.40
2023-01-27T08:33:50.701Z,44.60
2023-01-27T08:34:50.868Z,41.70
2023-01-27T08:35:51.042Z,42.20
2023-01-27T08:36:51.197Z,38.70
2023-01-27T08:37:51.360Z,38.10
2023-01-27T08:38:51.520Z,45.30
2023-01-27T08:39:51.680Z,39.60
2023-01-27T08:40:51.860Z,41.40
2023-01-27T08:41:52.042Z,43.70
2023-01-27T08:42:52.194Z,42.60
2023-01-27T08:43:52.407Z,39.10
2023-01-27T08:44:52.589Z,37.10
2023-01-27T08:45:52.854Z,45.00
2023-01-27T08:46:52.887Z,39.10
2023-01-27T08:47:53.078Z,47.10
2023-01-27T08:48:53.290Z,39.70
2023-01-27T08:49:53.445Z,39.90
2023-01-27T08:50:53.603Z,40.10
2023-01-27T08:51:53.764Z,36.70
2023-01-27T08:52:53.935Z,43.00
2023-01-27T08:53:54.114Z,39.50
2023-01-27T08:54:54.273Z,45.80
2023-01-27T08:55:54.439Z,39.90
2023-01-27T08:56:54.650Z,40.40
2023-01-27T08:57:54.828Z,34.00
2023-01-27T08:58:54.979Z,40.10
2023-01-27T08:59:55.133Z,31.50
2023-01-27T09:00:55.276Z,32.90
2023-01-27T09:01:55.433Z,37.60
2023-01-27T09:02:55.575Z,37.20
2023-01-27T09:03:55.737Z,37.80
2023-01-27T09:04:55.949Z,33.20
2023-01-27T09:05:56.027Z,34.30
2023-01-27T09:06:56.237Z,28.00
2023-01-27T09:07:56.387Z,29.70
2023-01-27T09:08:56.562Z,28.20
2023-01-27T09:10:12.688Z,26.80
2023-01-27T09:10:57.872Z,30.80
2023-01-27T09:11:57.083Z,31.10
2023-01-27T09:12:57.206Z,31.80
2023-01-27T09:13:57.402Z,31.90
2023-01-27T09:14:57.530Z,30.10
2023-01-27T09:15:57.707Z,29.90
2023-01-27T09:16:57.826Z,29.50
2023-01-27T09:17:57.980Z,28.00
2023-01-27T09:18:58.149Z,29.80
2023-01-27T09:19:58.286Z,28.00
2023-01-27T09:20:58.414Z,29.50
2023-01-27T09:21:58.587Z,29.30
2023-01-27T09:22:59.672Z,27.00
2023-01-27T09:23:59.001Z,24.70
2023-01-27T09:24:59.118Z,27.20
2023-01-27T09:25:59.255Z,30.00
2023-01-27T09:27:00.989Z,26.30
2023-01-27T09:27:59.526Z,30.00
2023-01-27T09:28:59.690Z,32.40
2023-01-27T09:29:59.833Z,24.00
2023-01-27T09:31:00.064Z,26.60
2023-01-27T09:32:00.346Z,27.10
2023-01-27T09:33:00.293Z,26.60
2023-01-27T09:34:00.474Z,29.10
2023-01-27T09:35:00.650Z,27.80
2023-01-27T09:36:00.797Z,24.70
2023-01-27T09:37:00.981Z,29.90
2023-01-27T09:38:01.120Z,29.20
2023-01-27T09:39:01.274Z,27.60
2023-01-27T09:40:01.499Z,28.60
2023-01-27T09:41:01.542Z,24.00
2023-01-27T09:42:01.699Z,26.50
2023-01-27T09:43:01.842Z,24.10
2023-01-27T09:44:01.991Z,26.70
2023-01-27T09:45:02.135Z,27.60
2023-01-27T09:46:02.287Z,25.70
2023-01-27T09:47:02.428Z,32.10
2023-01-27T09:48:02.532Z,32.60
2023-01-27T09:49:02.700Z,24.00
2023-01-27T09:50:02.819Z,24.90
2023-01-27T09:51:04.227Z,28.10
2023-01-27T09:52:03.165Z,28.10
2023-01-27T09:53:03.299Z,30.40
2023-01-27T09:54:03.426Z,23.80
2023-01-27T09:55:03.557Z,28.00
2023-01-27T09:56:03.669Z,29.40
2023-01-27T09:57:03.796Z,26.00
2023-01-27T09:58:03.922Z,24.80
2023-01-27T09:59:04.076Z,23.30
2023-01-27T10:00:04.189Z,22.50
2023-01-27T10:01:04.323Z,24.10
2023-01-27T10:02:04.487Z,22.70
2023-01-27T10:03:04.625Z,26.80
2023-01-27T10:04:04.760Z,27.40
2023-01-27T10:05:04.894Z,27.00
2023-01-27T10:06:05.039Z,25.60
2023-01-27T10:07:05.178Z,25.50
2023-01-27T10:08:05.295Z,28.80
2023-01-27T10:09:05.577Z,28.50
2023-01-27T10:10:05.633Z,28.00
2023-01-27T10:11:05.803Z,27.00
2023-01-27T10:12:05.962Z,29.10
2023-01-27T10:13:06.098Z,29.40
2023-01-27T10:14:08.662Z,29.70
2023-01-27T10:15:06.479Z,25.60
2023-01-27T10:16:06.652Z,30.00
2023-01-27T10:17:06.772Z,26.20
2023-01-27T10:18:06.897Z,25.20
2023-01-27T10:19:07.054Z,32.10
2023-01-27T10:20:07.211Z,26.10
2023-01-27T10:21:07.351Z,28.10
2023-01-27T10:22:07.551Z,26.70
2023-01-27T10:23:07.701Z,27.10
2023-01-27T10:24:07.896Z,22.90
2023-01-27T10:25:08.087Z,27.90
2023-01-27T10:26:08.205Z,26.10
2023-01-27T10:27:08.912Z,23.70
2023-01-27T10:28:08.537Z,28.00
2023-01-27T10:29:08.678Z,24.70
2023-01-27T10:30:08.843Z,27.10
2023-01-27T10:31:09.103Z,23.80
2023-01-27T10:32:09.157Z,30.50
2023-01-27T10:33:09.317Z,27.20
2023-01-27T10:34:09.483Z,40.30
2023-01-27T10:35:09.680Z,29.50
2023-01-27T10:36:09.811Z,26.60
2023-01-27T10:37:09.959Z,24.20
2023-01-27T10:38:10.106Z,24.80
2023-01-27T10:39:10.312Z,23.80
2023-01-27T10:40:17.460Z,29.40
2023-01-27T10:41:10.561Z,29.00
2023-01-27T10:42:10.701Z,26.90
2023-01-27T10:43:10.857Z,26.60
2023-01-27T10:44:11.567Z,24.50
2023-01-27T10:45:11.156Z,27.60
2023-01-27T10:46:11.279Z,25.60
2023-01-27T10:47:11.451Z,26.20
2023-01-27T10:48:11.564Z,32.00
2023-01-27T10:49:11.733Z,27.30
2023-01-27T10:50:12.190Z,27.90
2023-01-27T10:51:12.083Z,31.20
2023-01-27T10:52:12.112Z,24.30
2023-01-27T10:53:12.233Z,26.20
2023-01-27T10:54:12.401Z,21.70
2023-01-27T10:55:12.580Z,18.50
2023-01-27T10:56:12.693Z,21.80
2023-01-27T10:57:12.834Z,17.60
2023-01-27T10:58:12.978Z,18.90
2023-01-27T10:59:13.176Z,20.00
2023-01-27T11:00:51.892Z,20.50
2023-01-27T11:01:22.512Z,15.60
2023-01-27T11:02:14.749Z,21.20
2023-01-27T11:03:13.904Z,18.00
2023-01-27T11:04:14.161Z,16.90
2023-01-27T11:05:14.212Z,18.30
2023-01-27T11:06:14.337Z,16.10
2023-01-27T11:07:14.468Z,17.70
2023-01-27T11:08:14.595Z,18.80
2023-01-27T11:09:14.746Z,15.60
2023-01-27T11:10:15.317Z,17.10
2023-01-27T11:11:15.047Z,17.50
2023-01-27T11:12:15.177Z,16.50
2023-01-27T11:13:15.294Z,15.40
2023-01-27T11:14:15.438Z,18.70
2023-01-27T11:15:15.584Z,19.00
2023-01-27T11:16:15.727Z,16.20
2023-01-27T11:17:15.826Z,16.30
2023-01-27T11:18:15.941Z,16.60
2023-01-27T11:19:16.065Z,19.00
2023-01-27T11:20:16.382Z,16.70
2023-01-27T11:21:16.319Z,17.70
2023-01-27T11:22:16.431Z,24.00
2023-01-27T11:23:16.548Z,18.20
2023-01-27T11:24:16.708Z,16.20
2023-01-27T11:25:16.801Z,17.00
2023-01-27T11:26:16.909Z,13.20
2023-01-27T11:27:17.022Z,19.50
2023-01-27T11:28:17.134Z,14.50
2023-01-27T11:29:17.309Z,18.10
2023-01-27T11:30:18.065Z,18.10
2023-01-27T11:31:17.635Z,17.80
2023-01-27T11:32:17.801Z,19.40
2023-01-27T11:33:17.902Z,14.10
2023-01-27T11:34:18.054Z,17.10
2023-01-27T11:35:18.147Z,13.10
2023-01-27T11:36:18.331Z,13.20
2023-01-27T11:37:18.549Z,12.00
2023-01-27T11:38:18.626Z,14.30
2023-01-27T11:39:18.859Z,11.50
2023-01-27T11:40:19.519Z,11.20
2023-01-27T11:41:19.061Z,10.70
2023-01-27T11:42:19.147Z,11.40
2023-01-27T11:43:19.353Z,11.30
2023-01-27T11:44:19.612Z,13.40
2023-01-27T11:45:19.674Z,14.10
2023-01-27T11:46:19.865Z,13.20
2023-01-27T11:47:20.052Z,13.10
2023-01-27T11:48:23.076Z,12.40
2023-01-27T11:49:20.474Z,9.80
2023-01-27T11:50:20.553Z,10.30
2023-01-27T11:51:20.824Z,15.60
2023-01-27T11:52:20.912Z,12.10
2023-01-27T11:53:21.172Z,12.30
2023-01-27T11:54:22.112Z,9.90
2023-01-27T11:55:21.395Z,9.60
2023-01-27T11:56:21.558Z,11.00
2023-01-27T11:57:21.739Z,14.10
2023-01-27T11:58:21.939Z,11.70
2023-01-27T11:59:22.146Z,14.40
2023-01-27T12:00:22.345Z,9.70
2023-01-27T12:01:22.549Z,11.10
2023-01-27T12:02:22.747Z,11.80
2023-01-27T12:03:22.980Z,13.10
2023-01-27T12:04:23.200Z,12.60
2023-01-27T12:05:23.287Z,14.00
2023-01-27T12:06:23.390Z,14.60
2023-01-27T12:07:23.597Z,11.10
2023-01-27T12:08:23.798Z,12.20
2023-01-27T12:09:24.028Z,11.60
2023-01-27T12:10:24.144Z,10.80
2023-01-27T12:11:24.338Z,13.00
2023-01-27T12:12:24.512Z,12.00
2023-01-27T12:13:24.856Z,12.30
2023-01-27T12:14:24.855Z,11.60
2023-01-27T12:15:25.056Z,11.80
2023-01-27T12:16:25.366Z,13.10
2023-01-27T12:17:26.333Z,13.30
2023-01-27T12:18:25.505Z,12.00
2023-01-27T12:19:25.716Z,12.30
2023-01-27T12:20:25.801Z,14.60
2023-01-27T12:21:26.048Z,10.50
2023-01-27T12:22:26.148Z,14.50
2023-01-27T12:23:26.337Z,12.00
2023-01-27T12:24:26.625Z,15.70
2023-01-27T12:25:26.964Z,16.90
2023-01-27T12:26:26.832Z,16.70
2023-01-27T12:27:27.024Z,15.60
2023-01-27T12:28:27.215Z,14.10
2023-01-27T12:29:27.440Z,15.60
2023-01-27T12:30:27.632Z,18.50
2023-01-27T12:31:27.887Z,16.10
2023-01-27T12:32:28.008Z,13.00
2023-01-27T12:33:28.229Z,18.50
2023-01-27T12:34:28.441Z,15.20
2023-01-27T12:35:28.539Z,16.50
2023-01-27T12:36:30.317Z,20.30
2023-01-27T12:37:28.848Z,18.40
2023-01-27T12:38:28.952Z,21.10
2023-01-27T12:39:29.160Z,19.40
2023-01-27T12:40:29.243Z,20.90
2023-01-27T12:41:29.443Z,18.40
2023-01-27T12:42:30.544Z,15.40
2023-01-27T12:43:30.019Z,19.30
2023-01-27T12:44:29.988Z,20.80
2023-01-27T12:45:30.198Z,20.50
2023-01-27T12:46:30.457Z,26.00
2023-01-27T12:47:30.579Z,24.80
2023-01-27T12:48:30.675Z,21.30
2023-01-27T12:49:30.934Z,20.80
2023-01-27T12:50:31.023Z,18.50
2023-01-27T12:51:31.229Z,21.60
2023-01-27T12:52:31.430Z,26.40
2023-01-27T12:53:31.627Z,25.30
2023-01-27T12:54:31.814Z,20.40